Island Venture — WDG3765 — position and weather

sailwx.info

Track history (hours):
 
Tides and Currents Weather Stations Pressure Air Temp Water Temp Dewpoint Dewpoint Depression Visibility Wind Speed Wind Dir Waves Ship Positions

Island Venture

Owner: Island Tug and Barge, Seattle, WA. More information available from US FCC via Universal Licensing System and Coast Guard Vessel Documentation Center.

Last reported at 2016-Aug-29 06:33 UTC. Time now 2016-Aug-29 07:16 UTC.
Position N 47°34' W 122°21'.

Type: Tug. MMSI: 367529420.

Date/timePositionNaut miles runAvg speedWind from/ knotsBaromVisibWave heightAir tempDewpointWater temp
2016-Aug-29 06:33N 47°34' W 122°21'0 0.0
2016-Aug-29 05:33N 47°34' W 122°21'0 0.0
2016-Aug-29 04:33N 47°34' W 122°21'0 0.0
2016-Aug-29 03:33N 47°34' W 122°21'0 0.0
2016-Aug-29 02:33N 47°34' W 122°21'1 0.5
2016-Aug-29 01:33N 47°34' W 122°21'1 1.4
2016-Aug-29 00:33N 47°35' W 122°22'1 0.9
2016-Aug-28 23:33N 47°34' W 122°21'0 0.0
2016-Aug-28 22:33N 47°34' W 122°21'0 0.0
2016-Aug-28 21:33N 47°34' W 122°21'0 0.2
2016-Aug-28 20:33N 47°34' W 122°21'2 1.6
2016-Aug-28 19:33N 47°33' W 122°20'0 0.0
2016-Aug-28 18:26N 47°33' W 122°20'1 1.3
2016-Aug-28 17:32N 47°34' W 122°21'2 1.6
2016-Aug-28 16:33N 47°35' W 122°22'1 1.4
2016-Aug-28 15:33N 47°34' W 122°21'0 0.1
2016-Aug-28 14:31N 47°34' W 122°21'1 0.6
2016-Aug-28 13:33N 47°33' W 122°21'1 1.1
2016-Aug-28 12:33N 47°34' W 122°21'0 0.0
2016-Aug-28 11:33N 47°34' W 122°21'0 0.0
2016-Aug-28 10:33N 47°34' W 122°21'0 0.0
2016-Aug-28 09:33N 47°34' W 122°21'0 0.0
2016-Aug-28 08:33N 47°34' W 122°21'0 0.0
2016-Aug-28 07:33N 47°34' W 122°21'0 0.0
2016-Aug-28 06:33N 47°34' W 122°21'0 0.0
2016-Aug-28 05:33N 47°34' W 122°21'0 0.0
2016-Aug-28 04:33N 47°34' W 122°21'0 0.0
2016-Aug-28 03:33N 47°34' W 122°21'0 0.0
2016-Aug-28 02:33N 47°34' W 122°21'0 0.0
2016-Aug-28 01:33N 47°34' W 122°21'0 0.0
2016-Aug-28 00:33N 47°34' W 122°21'0 0.0
2016-Aug-27 23:33N 47°34' W 122°21'1 0.9
2016-Aug-27 22:33N 47°35' W 122°22'3 2.7
2016-Aug-27 21:33N 47°33' W 122°20'2 1.7
2016-Aug-27 20:33N 47°34' W 122°21'0 0.0
2016-Aug-27 19:33N 47°34' W 122°21'0 0.0
2016-Aug-27 18:33N 47°34' W 122°21'0 0.0
2016-Aug-27 17:33N 47°34' W 122°21'0 0.0
2016-Aug-27 16:33N 47°34' W 122°21'0 0.0
2016-Aug-27 15:33N 47°34' W 122°21'0 0.0
2016-Aug-27 14:33N 47°34' W 122°21'0 0.0
2016-Aug-27 13:33N 47°34' W 122°21'0 0.0
2016-Aug-27 12:33N 47°34' W 122°21'0 0.0
2016-Aug-27 11:33N 47°34' W 122°21'0 0.0
2016-Aug-27 10:33N 47°34' W 122°21'0 0.0
2016-Aug-27 09:33N 47°34' W 122°21'0 0.0
2016-Aug-27 08:33N 47°34' W 122°21'2 1.8
2016-Aug-27 07:33N 47°33' W 122°20'1 1.1
2016-Aug-27 06:33N 47°34' W 122°21'2 0.8
2016-Aug-27 04:33N 47°35' W 122°22'2 2.1
2016-Aug-27 03:33N 47°35' W 122°25'7 7.0
2016-Aug-27 02:33N 47°29' W 122°30'7 6.7
2016-Aug-27 01:33N 47°22' W 122°32'7 7.2
2016-Aug-27 00:33N 47°15' W 122°34'1 0.0
2016-Aug-26 02:32N 47°16' W 122°33'8 8.0
2016-Aug-26 01:33N 47°24' W 122°32'7 7.3
2016-Aug-26 00:33N 47°31' W 122°29'7 6.8
2016-Aug-25 23:33N 47°36' W 122°23'3 3.2
2016-Aug-25 22:33N 47°34' W 122°27'2 2.3
2016-Aug-25 21:33N 47°33' W 122°30'3 2.9
2016-Aug-25 20:33N 47°34' W 122°26'3 3.1
2016-Aug-25 19:33N 47°34' W 122°22'0 0.0
2016-Aug-25 18:34N 47°34' W 122°22'0 0.0
2016-Aug-25 17:33N 47°34' W 122°22'0 0.0
2016-Aug-25 16:33N 47°34' W 122°22'2 1.9
2016-Aug-25 15:33N 47°33' W 122°20'1 1.1
2016-Aug-25 14:33N 47°34' W 122°21'1 0.5
2016-Aug-25 13:34N 47°33' W 122°21'1 1.2
2016-Aug-25 12:33N 47°34' W 122°21'0 0.0
2016-Aug-25 11:33N 47°34' W 122°21'0 0.0
2016-Aug-25 10:33N 47°34' W 122°21'0 0.0
2016-Aug-25 09:33N 47°34' W 122°21'0 0.0
2016-Aug-25 08:33N 47°34' W 122°21'0 0.0
2016-Aug-25 07:33N 47°34' W 122°21'0 0.0
2016-Aug-25 06:33N 47°34' W 122°21'0 0.0
2016-Aug-25 04:33N 47°34' W 122°21'0 0.0
2016-Aug-25 03:33N 47°34' W 122°21'0 0.0
2016-Aug-25 02:34N 47°34' W 122°21'2 1.7
2016-Aug-25 01:33N 47°33' W 122°20'1 0.9
2016-Aug-25 00:33N 47°34' W 122°21'1 0.8
2016-Aug-24 23:33N 47°34' W 122°21'0 0.0
2016-Aug-24 22:33N 47°34' W 122°21'0 0.0
2016-Aug-24 21:33N 47°34' W 122°21'0 0.0
2016-Aug-24 20:33N 47°34' W 122°21'0 0.0
2016-Aug-24 19:33N 47°34' W 122°21'0 0.0
2016-Aug-24 18:33N 47°34' W 122°21'0 0.0
2016-Aug-24 17:33N 47°34' W 122°21'0 0.0
2016-Aug-24 16:33N 47°34' W 122°21'0 0.0
2016-Aug-24 15:33N 47°34' W 122°21'1 0.5
2016-Aug-24 14:33N 47°34' W 122°21'0 0.3
2016-Aug-24 13:33N 47°34' W 122°21'1 0.7
2016-Aug-24 12:33N 47°34' W 122°21'0 0.0
2016-Aug-24 11:33N 47°34' W 122°21'0 0.0
2016-Aug-24 10:33N 47°34' W 122°21'0 0.0
2016-Aug-24 09:33N 47°34' W 122°21'1 0.7
2016-Aug-24 08:33N 47°34' W 122°21'2 2.0
2016-Aug-24 07:33N 47°36' W 122°22'5 5.4
2016-Aug-24 06:33N 47°32' W 122°28'13 6.5
2016-Aug-24 04:33N 47°20' W 122°33'4 3.7
2016-Aug-24 03:33N 47°16' W 122°33'3 2.7
2016-Aug-24 02:33N 47°14' W 122°35'5 5.1
2016-Aug-24 01:33N 47°09' W 122°39'1 0.8
2016-Aug-24 00:33N 47°09' W 122°38'8 1.5
2016-Aug-23 19:13N 47°16' W 122°33'3 5.2
2016-Aug-23 18:33N 47°19' W 122°34'7 7.4
2016-Aug-23 17:33N 47°26' W 122°31'8 7.9
2016-Aug-23 16:33N 47°34' W 122°27'4 3.6
2016-Aug-23 15:33N 47°34' W 122°21'0 0.1
2016-Aug-23 14:33N 47°34' W 122°21'0 0.2
2016-Aug-23 13:33N 47°34' W 122°21'0 0.4
2016-Aug-23 12:33N 47°34' W 122°21'2 2.2
2016-Aug-23 11:33N 47°36' W 122°22'2 2.0
2016-Aug-23 10:33N 47°35' W 122°25'6 5.8
2016-Aug-23 09:33N 47°30' W 122°29'8 7.8
2016-Aug-23 08:33N 47°23' W 122°32'9 9.1
2016-Aug-23 07:33N 47°14' W 122°35'10 0.5
2016-Aug-22 12:26N 47°11' W 122°50'8 6.6
2016-Aug-22 11:12N 47°12' W 122°38'5 7.0
2016-Aug-22 10:30N 47°16' W 122°34'6 6.1
2016-Aug-22 09:33N 47°21' W 122°32'6 5.8
2016-Aug-22 08:33N 47°27' W 122°31'6 5.9
2016-Aug-22 07:33N 47°33' W 122°28'5 4.9
2016-Aug-22 06:33N 47°34' W 122°21'0 0.2
2016-Aug-22 05:33N 47°34' W 122°21'0 0.0
2016-Aug-22 04:33N 47°34' W 122°21'0 0.0
2016-Aug-22 03:33N 47°34' W 122°21'0 0.0
2016-Aug-22 02:33N 47°34' W 122°21'0 0.0
2016-Aug-22 01:33N 47°34' W 122°21'0 0.0
2016-Aug-22 00:33N 47°34' W 122°21'0 0.0
2016-Aug-21 23:33N 47°34' W 122°21'0 0.0
2016-Aug-21 22:33N 47°34' W 122°21'0 0.0
2016-Aug-21 21:33N 47°34' W 122°21'0 0.0
2016-Aug-21 20:33N 47°34' W 122°21'0 0.0
2016-Aug-21 19:33N 47°34' W 122°21'0 0.0
2016-Aug-21 18:34N 47°34' W 122°21'0 0.0
2016-Aug-21 17:33N 47°34' W 122°21'0 0.0
2016-Aug-21 16:33N 47°34' W 122°21'0 0.0
2016-Aug-21 15:33N 47°34' W 122°21'1 0.5
2016-Aug-21 14:33N 47°34' W 122°21'1 0.6
2016-Aug-21 13:33N 47°33' W 122°21'1 1.0
2016-Aug-21 12:33N 47°34' W 122°21'0 0.0
2016-Aug-21 11:33N 47°34' W 122°21'0 0.0
2016-Aug-21 10:33N 47°34' W 122°21'0 0.0
2016-Aug-21 09:33N 47°34' W 122°21'0 0.0
2016-Aug-21 08:33N 47°34' W 122°21'0 0.0
2016-Aug-21 07:33N 47°34' W 122°21'0 0.0
2016-Aug-21 06:34N 47°34' W 122°21'0 0.0
2016-Aug-21 05:33N 47°34' W 122°21'0 0.0
2016-Aug-21 04:33N 47°34' W 122°21'0 0.0
2016-Aug-21 03:33N 47°34' W 122°21'0 0.0
2016-Aug-21 02:33N 47°34' W 122°21'0 0.0
2016-Aug-21 01:33N 47°34' W 122°21'1 0.6
2016-Aug-21 00:33N 47°34' W 122°21'2 1.9
2016-Aug-20 23:33N 47°36' W 122°22'5 5.3
2016-Aug-20 22:33N 47°39' W 122°28'7 7.2
2016-Aug-20 21:33N 47°46' W 122°27'7 6.8
2016-Aug-20 20:33N 47°53' W 122°30'6 6.1
2016-Aug-20 19:33N 47°58' W 122°35'23 4.2
2016-Aug-20 14:08N 48°19' W 122°47'4 7.1
2016-Aug-20 13:33N 48°23' W 122°46'7 6.9
2016-Aug-20 12:33N 48°30' W 122°45'6 6.2
2016-Aug-20 11:33N 48°36' W 122°45'6 5.8
2016-Aug-20 10:33N 48°41' W 122°44'6 6.3
2016-Aug-20 09:32N 48°46' W 122°51'7 6.6
2016-Aug-20 08:33N 48°50' W 122°59'7 7.4
2016-Aug-20 07:33N 48°54' W 123°08'8 7.7
2016-Aug-20 06:33N 48°59' W 123°17'8 8.0
2016-Aug-20 05:33N 49°04' W 123°26'8 7.5
2016-Aug-20 04:33N 49°10' W 123°33'8 8.2
2016-Aug-20 03:33N 49°15' W 123°43'8 7.7
2016-Aug-20 02:33N 49°20' W 123°52'7 7.1
2016-Aug-20 01:33N 49°24' W 124°01'7 7.1
2016-Aug-20 00:33N 49°29' W 124°09'7 6.5
2016-Aug-19 23:33N 49°33' W 124°18'7 6.9
2016-Aug-19 22:33N 49°36' W 124°27'7 6.7
2016-Aug-19 21:33N 49°41' W 124°33'1 0.8
2016-Aug-19 20:33N 49°42' W 124°33'0 0.0
2016-Aug-19 19:09N 49°42' W 124°33'0 0.0
2016-Aug-19 18:33N 49°42' W 124°33'0 0.0
2016-Aug-19 17:30N 49°42' W 124°33'0 0.0
2016-Aug-19 16:11N 49°42' W 124°33'0 0.0
2016-Aug-19 15:16N 49°42' W 124°33'0 0.0
2016-Aug-19 14:29N 49°42' W 124°33'1 0.5
2016-Aug-19 13:33N 49°41' W 124°33'3 2.9
2016-Aug-19 12:33N 49°39' W 124°31'7 6.7
2016-Aug-19 11:33N 49°34' W 124°24'7 6.6
2016-Aug-19 10:33N 49°32' W 124°15'6 6.4
2016-Aug-19 09:33N 49°28' W 124°07'6 6.3
2016-Aug-19 08:33N 49°24' W 123°59'6 6.0
2016-Aug-19 07:33N 49°21' W 123°51'  
Track history (hours):
 
Tides and Currents Weather Stations Pressure Air Temp Water Temp Dewpoint Dewpoint Depression Visibility Wind Speed Wind Dir Waves Ship Positions

Island Venture

Owner: Island Tug and Barge, Seattle, WA. More information available from US FCC via Universal Licensing System and Coast Guard Vessel Documentation Center.

Last reported at 2016-Aug-29 06:33 UTC. Time now 2016-Aug-29 07:16 UTC.
Position N 47°34' W 122°21'.

Type: Tug. MMSI: 367529420.

Date/timePositionNaut miles runAvg speedWind from/ knotsBaromVisibWave heightAir tempDewpointWater temp
2016-Aug-29 06:33N 47°34' W 122°21'0 0.0
2016-Aug-29 05:33N 47°34' W 122°21'0 0.0
2016-Aug-29 04:33N 47°34' W 122°21'0 0.0
2016-Aug-29 03:33N 47°34' W 122°21'0 0.0
2016-Aug-29 02:33N 47°34' W 122°21'1 0.5
2016-Aug-29 01:33N 47°34' W 122°21'1 1.4
2016-Aug-29 00:33N 47°35' W 122°22'1 0.9
2016-Aug-28 23:33N 47°34' W 122°21'0 0.0
2016-Aug-28 22:33N 47°34' W 122°21'0 0.0
2016-Aug-28 21:33N 47°34' W 122°21'0 0.2
2016-Aug-28 20:33N 47°34' W 122°21'2 1.6
2016-Aug-28 19:33N 47°33' W 122°20'0 0.0
2016-Aug-28 18:26N 47°33' W 122°20'1 1.3
2016-Aug-28 17:32N 47°34' W 122°21'2 1.6
2016-Aug-28 16:33N 47°35' W 122°22'1 1.4
2016-Aug-28 15:33N 47°34' W 122°21'0 0.1
2016-Aug-28 14:31N 47°34' W 122°21'1 0.6
2016-Aug-28 13:33N 47°33' W 122°21'1 1.1
2016-Aug-28 12:33N 47°34' W 122°21'0 0.0
2016-Aug-28 11:33N 47°34' W 122°21'0 0.0
2016-Aug-28 10:33N 47°34' W 122°21'0 0.0
2016-Aug-28 09:33N 47°34' W 122°21'0 0.0
2016-Aug-28 08:33N 47°34' W 122°21'0 0.0
2016-Aug-28 07:33N 47°34' W 122°21'0 0.0
2016-Aug-28 06:33N 47°34' W 122°21'0 0.0
2016-Aug-28 05:33N 47°34' W 122°21'0 0.0
2016-Aug-28 04:33N 47°34' W 122°21'0 0.0
2016-Aug-28 03:33N 47°34' W 122°21'0 0.0
2016-Aug-28 02:33N 47°34' W 122°21'0 0.0
2016-Aug-28 01:33N 47°34' W 122°21'0 0.0
2016-Aug-28 00:33N 47°34' W 122°21'0 0.0
2016-Aug-27 23:33N 47°34' W 122°21'1 0.9
2016-Aug-27 22:33N 47°35' W 122°22'3 2.7
2016-Aug-27 21:33N 47°33' W 122°20'2 1.7
2016-Aug-27 20:33N 47°34' W 122°21'0 0.0
2016-Aug-27 19:33N 47°34' W 122°21'0 0.0
2016-Aug-27 18:33N 47°34' W 122°21'0 0.0
2016-Aug-27 17:33N 47°34' W 122°21'0 0.0
2016-Aug-27 16:33N 47°34' W 122°21'0 0.0
2016-Aug-27 15:33N 47°34' W 122°21'0 0.0
2016-Aug-27 14:33N 47°34' W 122°21'0 0.0
2016-Aug-27 13:33N 47°34' W 122°21'0 0.0
2016-Aug-27 12:33N 47°34' W 122°21'0 0.0
2016-Aug-27 11:33N 47°34' W 122°21'0 0.0
2016-Aug-27 10:33N 47°34' W 122°21'0 0.0
2016-Aug-27 09:33N 47°34' W 122°21'0 0.0
2016-Aug-27 08:33N 47°34' W 122°21'2 1.8
2016-Aug-27 07:33N 47°33' W 122°20'1 1.1
2016-Aug-27 06:33N 47°34' W 122°21'2 0.8
2016-Aug-27 04:33N 47°35' W 122°22'2 2.1
2016-Aug-27 03:33N 47°35' W 122°25'7 7.0
2016-Aug-27 02:33N 47°29' W 122°30'7 6.7
2016-Aug-27 01:33N 47°22' W 122°32'7 7.2
2016-Aug-27 00:33N 47°15' W 122°34'1 0.0
2016-Aug-26 02:32N 47°16' W 122°33'8 8.0
2016-Aug-26 01:33N 47°24' W 122°32'7 7.3
2016-Aug-26 00:33N 47°31' W 122°29'7 6.8
2016-Aug-25 23:33N 47°36' W 122°23'3 3.2
2016-Aug-25 22:33N 47°34' W 122°27'2 2.3
2016-Aug-25 21:33N 47°33' W 122°30'3 2.9
2016-Aug-25 20:33N 47°34' W 122°26'3 3.1
2016-Aug-25 19:33N 47°34' W 122°22'0 0.0
2016-Aug-25 18:34N 47°34' W 122°22'0 0.0
2016-Aug-25 17:33N 47°34' W 122°22'0 0.0
2016-Aug-25 16:33N 47°34' W 122°22'2 1.9
2016-Aug-25 15:33N 47°33' W 122°20'1 1.1
2016-Aug-25 14:33N 47°34' W 122°21'1 0.5
2016-Aug-25 13:34N 47°33' W 122°21'1 1.2
2016-Aug-25 12:33N 47°34' W 122°21'0 0.0
2016-Aug-25 11:33N 47°34' W 122°21'0 0.0
2016-Aug-25 10:33N 47°34' W 122°21'0 0.0
2016-Aug-25 09:33N 47°34' W 122°21'0 0.0
2016-Aug-25 08:33N 47°34' W 122°21'0 0.0
2016-Aug-25 07:33N 47°34' W 122°21'0 0.0
2016-Aug-25 06:33N 47°34' W 122°21'0 0.0
2016-Aug-25 04:33N 47°34' W 122°21'0 0.0
2016-Aug-25 03:33N 47°34' W 122°21'0 0.0
2016-Aug-25 02:34N 47°34' W 122°21'2 1.7
2016-Aug-25 01:33N 47°33' W 122°20'1 0.9
2016-Aug-25 00:33N 47°34' W 122°21'1 0.8
2016-Aug-24 23:33N 47°34' W 122°21'0 0.0
2016-Aug-24 22:33N 47°34' W 122°21'0 0.0
2016-Aug-24 21:33N 47°34' W 122°21'0 0.0
2016-Aug-24 20:33N 47°34' W 122°21'0 0.0
2016-Aug-24 19:33N 47°34' W 122°21'0 0.0
2016-Aug-24 18:33N 47°34' W 122°21'0 0.0
2016-Aug-24 17:33N 47°34' W 122°21'0 0.0
2016-Aug-24 16:33N 47°34' W 122°21'0 0.0
2016-Aug-24 15:33N 47°34' W 122°21'1 0.5
2016-Aug-24 14:33N 47°34' W 122°21'0 0.3
2016-Aug-24 13:33N 47°34' W 122°21'1 0.7
2016-Aug-24 12:33N 47°34' W 122°21'0 0.0
2016-Aug-24 11:33N 47°34' W 122°21'0 0.0
2016-Aug-24 10:33N 47°34' W 122°21'0 0.0
2016-Aug-24 09:33N 47°34' W 122°21'1 0.7
2016-Aug-24 08:33N 47°34' W 122°21'2 2.0
2016-Aug-24 07:33N 47°36' W 122°22'5 5.4
2016-Aug-24 06:33N 47°32' W 122°28'13 6.5
2016-Aug-24 04:33N 47°20' W 122°33'4 3.7
2016-Aug-24 03:33N 47°16' W 122°33'3 2.7
2016-Aug-24 02:33N 47°14' W 122°35'5 5.1
2016-Aug-24 01:33N 47°09' W 122°39'1 0.8
2016-Aug-24 00:33N 47°09' W 122°38'8 1.5
2016-Aug-23 19:13N 47°16' W 122°33'3 5.2
2016-Aug-23 18:33N 47°19' W 122°34'7 7.4
2016-Aug-23 17:33N 47°26' W 122°31'8 7.9
2016-Aug-23 16:33N 47°34' W 122°27'4 3.6
2016-Aug-23 15:33N 47°34' W 122°21'0 0.1
2016-Aug-23 14:33N 47°34' W 122°21'0 0.2
2016-Aug-23 13:33N 47°34' W 122°21'0 0.4
2016-Aug-23 12:33N 47°34' W 122°21'2 2.2
2016-Aug-23 11:33N 47°36' W 122°22'2 2.0
2016-Aug-23 10:33N 47°35' W 122°25'6 5.8
2016-Aug-23 09:33N 47°30' W 122°29'8 7.8
2016-Aug-23 08:33N 47°23' W 122°32'9 9.1
2016-Aug-23 07:33N 47°14' W 122°35'10 0.5
2016-Aug-22 12:26N 47°11' W 122°50'8 6.6
2016-Aug-22 11:12N 47°12' W 122°38'5 7.0
2016-Aug-22 10:30N 47°16' W 122°34'6 6.1
2016-Aug-22 09:33N 47°21' W 122°32'6 5.8
2016-Aug-22 08:33N 47°27' W 122°31'6 5.9
2016-Aug-22 07:33N 47°33' W 122°28'5 4.9
2016-Aug-22 06:33N 47°34' W 122°21'0 0.2
2016-Aug-22 05:33N 47°34' W 122°21'0 0.0
2016-Aug-22 04:33N 47°34' W 122°21'0 0.0
2016-Aug-22 03:33N 47°34' W 122°21'0 0.0
2016-Aug-22 02:33N 47°34' W 122°21'0 0.0
2016-Aug-22 01:33N 47°34' W 122°21'0 0.0
2016-Aug-22 00:33N 47°34' W 122°21'0 0.0
2016-Aug-21 23:33N 47°34' W 122°21'0 0.0
2016-Aug-21 22:33N 47°34' W 122°21'0 0.0
2016-Aug-21 21:33N 47°34' W 122°21'0 0.0
2016-Aug-21 20:33N 47°34' W 122°21'0 0.0
2016-Aug-21 19:33N 47°34' W 122°21'0 0.0
2016-Aug-21 18:34N 47°34' W 122°21'0 0.0
2016-Aug-21 17:33N 47°34' W 122°21'0 0.0
2016-Aug-21 16:33N 47°34' W 122°21'0 0.0
2016-Aug-21 15:33N 47°34' W 122°21'1 0.5
2016-Aug-21 14:33N 47°34' W 122°21'1 0.6
2016-Aug-21 13:33N 47°33' W 122°21'1 1.0
2016-Aug-21 12:33N 47°34' W 122°21'0 0.0
2016-Aug-21 11:33N 47°34' W 122°21'0 0.0
2016-Aug-21 10:33N 47°34' W 122°21'0 0.0
2016-Aug-21 09:33N 47°34' W 122°21'0 0.0
2016-Aug-21 08:33N 47°34' W 122°21'0 0.0
2016-Aug-21 07:33N 47°34' W 122°21'0 0.0
2016-Aug-21 06:34N 47°34' W 122°21'0 0.0
2016-Aug-21 05:33N 47°34' W 122°21'0 0.0
2016-Aug-21 04:33N 47°34' W 122°21'0 0.0
2016-Aug-21 03:33N 47°34' W 122°21'0 0.0
2016-Aug-21 02:33N 47°34' W 122°21'0 0.0
2016-Aug-21 01:33N 47°34' W 122°21'1 0.6
2016-Aug-21 00:33N 47°34' W 122°21'2 1.9
2016-Aug-20 23:33N 47°36' W 122°22'5 5.3
2016-Aug-20 22:33N 47°39' W 122°28'7 7.2
2016-Aug-20 21:33N 47°46' W 122°27'7 6.8
2016-Aug-20 20:33N 47°53' W 122°30'6 6.1
2016-Aug-20 19:33N 47°58' W 122°35'23 4.2
2016-Aug-20 14:08N 48°19' W 122°47'4 7.1
2016-Aug-20 13:33N 48°23' W 122°46'7 6.9
2016-Aug-20 12:33N 48°30' W 122°45'6 6.2
2016-Aug-20 11:33N 48°36' W 122°45'6 5.8
2016-Aug-20 10:33N 48°41' W 122°44'6 6.3
2016-Aug-20 09:32N 48°46' W 122°51'7 6.6
2016-Aug-20 08:33N 48°50' W 122°59'7 7.4
2016-Aug-20 07:33N 48°54' W 123°08'8 7.7
2016-Aug-20 06:33N 48°59' W 123°17'8 8.0
2016-Aug-20 05:33N 49°04' W 123°26'8 7.5
2016-Aug-20 04:33N 49°10' W 123°33'8 8.2
2016-Aug-20 03:33N 49°15' W 123°43'8 7.7
2016-Aug-20 02:33N 49°20' W 123°52'7 7.1
2016-Aug-20 01:33N 49°24' W 124°01'7 7.1
2016-Aug-20 00:33N 49°29' W 124°09'7 6.5
2016-Aug-19 23:33N 49°33' W 124°18'7 6.9
2016-Aug-19 22:33N 49°36' W 124°27'7 6.7
2016-Aug-19 21:33N 49°41' W 124°33'1 0.8
2016-Aug-19 20:33N 49°42' W 124°33'0 0.0
2016-Aug-19 19:09N 49°42' W 124°33'0 0.0
2016-Aug-19 18:33N 49°42' W 124°33'0 0.0
2016-Aug-19 17:30N 49°42' W 124°33'0 0.0
2016-Aug-19 16:11N 49°42' W 124°33'0 0.0
2016-Aug-19 15:16N 49°42' W 124°33'0 0.0
2016-Aug-19 14:29N 49°42' W 124°33'1 0.5
2016-Aug-19 13:33N 49°41' W 124°33'3 2.9
2016-Aug-19 12:33N 49°39' W 124°31'7 6.7
2016-Aug-19 11:33N 49°34' W 124°24'7 6.6
2016-Aug-19 10:33N 49°32' W 124°15'6 6.4
2016-Aug-19 09:33N 49°28' W 124°07'6 6.3
2016-Aug-19 08:33N 49°24' W 123°59'6 6.0
2016-Aug-19 07:33N 49°21' W 123°51'  

Dump ship's entire track history